sensor_id;sensor_type;location;lat;lon;timestamp;pressure;altitude;pressure_sealevel;temperature;humidity
34073;BME280;20346;52.702;16.886;2023-06-22T00:01:40;101151.13;;;20.68;70.07
34073;BME280;20346;52.702;16.886;2023-06-22T00:04:27;101151.46;;;20.65;70.03
34073;BME280;20346;52.702;16.886;2023-06-22T00:07:13;101155.26;;;20.63;70.01
34073;BME280;20346;52.702;16.886;2023-06-22T00:09:59;101153.30;;;20.59;69.98
34073;BME280;20346;52.702;16.886;2023-06-22T00:12:45;101152.45;;;20.52;70.08
34073;BME280;20346;52.702;16.886;2023-06-22T00:15:32;101155.89;;;20.49;70.01
34073;BME280;20346;52.702;16.886;2023-06-22T00:18:18;101158.21;;;20.48;70.07
34073;BME280;20346;52.702;16.886;2023-06-22T00:21:04;101163.51;;;20.47;70.04
34073;BME280;20346;52.702;16.886;2023-06-22T00:23:50;101161.10;;;20.43;69.97
34073;BME280;20346;52.702;16.886;2023-06-22T00:26:36;101166.48;;;20.40;70.07
34073;BME280;20346;52.702;16.886;2023-06-22T00:29:22;101172.70;;;20.38;70.06
34073;BME280;20346;52.702;16.886;2023-06-22T00:32:08;101179.86;;;20.35;70.02
34073;BME280;20346;52.702;16.886;2023-06-22T00:34:54;101181.23;;;20.32;70.14
34073;BME280;20346;52.702;16.886;2023-06-22T00:37:41;101182.55;;;20.29;70.03
34073;BME280;20346;52.702;16.886;2023-06-22T00:40:29;101187.05;;;20.24;69.79
34073;BME280;20346;52.702;16.886;2023-06-22T00:43:15;101180.38;;;20.17;70.15
34073;BME280;20346;52.702;16.886;2023-06-22T00:46:01;101181.66;;;20.12;70.03
34073;BME280;20346;52.702;16.886;2023-06-22T00:48:48;101182.63;;;20.10;70.20
34073;BME280;20346;52.702;16.886;2023-06-22T00:51:34;101181.05;;;20.10;70.19
34073;BME280;20346;52.702;16.886;2023-06-22T00:54:24;101181.29;;;20.09;70.14
34073;BME280;20346;52.702;16.886;2023-06-22T00:57:13;101184.30;;;20.04;70.32
34073;BME280;20346;52.702;16.886;2023-06-22T01:00:01;101182.43;;;19.99;70.29
34073;BME280;20346;52.702;16.886;2023-06-22T01:02:55;101178.70;;;19.93;70.17
34073;BME280;20346;52.702;16.886;2023-06-22T01:05:41;101183.06;;;19.89;70.34
34073;BME280;20346;52.702;16.886;2023-06-22T01:08:34;101185.64;;;19.87;70.27
34073;BME280;20346;52.702;16.886;2023-06-22T01:11:29;101185.77;;;19.80;70.28
34073;BME280;20346;52.702;16.886;2023-06-22T01:14:26;101186.48;;;19.72;70.27
34073;BME280;20346;52.702;16.886;2023-06-22T01:17:15;101190.14;;;19.65;70.37
34073;BME280;20346;52.702;16.886;2023-06-22T01:20:02;101188.45;;;19.60;70.33
34073;BME280;20346;52.702;16.886;2023-06-22T01:23:20;101194.33;;;19.57;70.42
34073;BME280;20346;52.702;16.886;2023-06-22T01:26:19;101186.67;;;19.52;70.36
34073;BME280;20346;52.702;16.886;2023-06-22T01:29:08;101192.21;;;19.49;70.53
34073;BME280;20346;52.702;16.886;2023-06-22T01:31:59;101199.77;;;19.48;70.64
34073;BME280;20346;52.702;16.886;2023-06-22T01:34:46;101197.21;;;19.47;70.62
34073;BME280;20346;52.702;16.886;2023-06-22T01:37:35;101200.27;;;19.45;70.72
34073;BME280;20346;52.702;16.886;2023-06-22T01:40:23;101201.00;;;19.44;70.73
34073;BME280;20346;52.702;16.886;2023-06-22T01:43:10;101207.14;;;19.43;70.79
34073;BME280;20346;52.702;16.886;2023-06-22T01:45:57;101210.91;;;19.41;70.67
34073;BME280;20346;52.702;16.886;2023-06-22T01:48:44;101212.36;;;19.40;70.82
34073;BME280;20346;52.702;16.886;2023-06-22T01:51:30;101212.09;;;19.42;70.73
34073;BME280;20346;52.702;16.886;2023-06-22T01:54:16;101208.73;;;19.39;70.79
34073;BME280;20346;52.702;16.886;2023-06-22T01:57:03;101209.42;;;19.35;70.76
34073;BME280;20346;52.702;16.886;2023-06-22T01:59:59;101203.19;;;19.30;70.75
34073;BME280;20346;52.702;16.886;2023-06-22T02:02:53;101201.44;;;19.22;70.71
34073;BME280;20346;52.702;16.886;2023-06-22T02:05:49;101207.02;;;19.18;70.62
34073;BME280;20346;52.702;16.886;2023-06-22T02:08:48;101211.45;;;19.17;70.72
34073;BME280;20346;52.702;16.886;2023-06-22T02:11:36;101212.71;;;19.16;70.64
34073;BME280;20346;52.702;16.886;2023-06-22T02:14:23;101210.40;;;19.12;70.58
34073;BME280;20346;52.702;16.886;2023-06-22T02:17:11;101220.75;;;19.08;70.65
34073;BME280;20346;52.702;16.886;2023-06-22T02:19:57;101217.09;;;19.03;70.54
34073;BME280;20346;52.702;16.886;2023-06-22T02:22:44;101222.12;;;19.00;70.70
34073;BME280;20346;52.702;16.886;2023-06-22T02:25:30;101229.84;;;18.95;70.68
34073;BME280;20346;52.702;16.886;2023-06-22T02:28:17;101233.56;;;18.90;70.62
34073;BME280;20346;52.702;16.886;2023-06-22T02:31:03;101241.28;;;18.84;70.76
34073;BME280;20346;52.702;16.886;2023-06-22T02:33:49;101245.40;;;18.82;70.92
34073;BME280;20346;52.702;16.886;2023-06-22T02:36:36;101252.38;;;18.82;70.91
34073;BME280;20346;52.702;16.886;2023-06-22T02:39:23;101253.58;;;18.82;70.91
34073;BME280;20346;52.702;16.886;2023-06-22T02:42:10;101260.08;;;18.82;70.86
34073;BME280;20346;52.702;16.886;2023-06-22T02:44:56;101258.85;;;18.81;70.96
34073;BME280;20346;52.702;16.886;2023-06-22T02:47:42;101258.05;;;18.84;70.94
34073;BME280;20346;52.702;16.886;2023-06-22T02:50:29;101256.38;;;18.87;70.98
34073;BME280;20346;52.702;16.886;2023-06-22T02:53:15;101257.27;;;18.86;71.03
34073;BME280;20346;52.702;16.886;2023-06-22T02:56:02;101256.74;;;18.86;71.04
34073;BME280;20346;52.702;16.886;2023-06-22T02:58:51;101258.10;;;18.88;71.19
34073;BME280;20346;52.702;16.886;2023-06-22T03:01:38;101259.09;;;18.89;71.19
34073;BME280;20346;52.702;16.886;2023-06-22T03:04:26;101257.70;;;18.89;71.22
34073;BME280;20346;52.702;16.886;2023-06-22T03:07:12;101258.48;;;18.91;71.17
34073;BME280;20346;52.702;16.886;2023-06-22T03:09:58;101260.60;;;18.90;71.11
34073;BME280;20346;52.702;16.886;2023-06-22T03:12:44;101267.52;;;18.88;71.20
34073;BME280;20346;52.702;16.886;2023-06-22T03:15:30;101271.89;;;18.88;71.31
34073;BME280;20346;52.702;16.886;2023-06-22T03:18:18;101270.66;;;18.88;71.19
34073;BME280;20346;52.702;16.886;2023-06-22T03:21:04;101271.59;;;18.91;71.38
34073;BME280;20346;52.702;16.886;2023-06-22T03:23:51;101268.01;;;18.93;71.36
34073;BME280;20346;52.702;16.886;2023-06-22T03:26:37;101267.52;;;18.96;71.29
34073;BME280;20346;52.702;16.886;2023-06-22T03:29:23;101263.95;;;18.98;71.49
34073;BME280;20346;52.702;16.886;2023-06-22T03:32:11;101262.16;;;18.99;71.41
34073;BME280;20346;52.702;16.886;2023-06-22T03:34:57;101260.16;;;19.01;71.45
34073;BME280;20346;52.702;16.886;2023-06-22T03:37:44;101261.33;;;19.02;71.49
34073;BME280;20346;52.702;16.886;2023-06-22T03:40:30;101260.04;;;19.04;71.52
34073;BME280;20346;52.702;16.886;2023-06-22T03:43:17;101260.65;;;19.06;71.55
34073;BME280;20346;52.702;16.886;2023-06-22T03:46:03;101266.07;;;19.10;71.49
34073;BME280;20346;52.702;16.886;2023-06-22T03:48:49;101265.56;;;19.14;71.59
34073;BME280;20346;52.702;16.886;2023-06-22T03:51:35;101267.05;;;19.16;71.68
34073;BME280;20346;52.702;16.886;2023-06-22T03:54:22;101266.77;;;19.19;71.44
34073;BME280;20346;52.702;16.886;2023-06-22T03:57:08;101275.55;;;19.22;71.58
34073;BME280;20346;52.702;16.886;2023-06-22T03:59:56;101282.89;;;19.26;71.53
34073;BME280;20346;52.702;16.886;2023-06-22T04:02:42;101279.41;;;19.29;71.51
34073;BME280;20346;52.702;16.886;2023-06-22T04:05:29;101288.27;;;19.31;71.65
34073;BME280;20346;52.702;16.886;2023-06-22T04:08:15;101289.13;;;19.36;71.61
34073;BME280;20346;52.702;16.886;2023-06-22T04:11:01;101291.04;;;19.44;71.73
34073;BME280;20346;52.702;16.886;2023-06-22T04:13:47;101293.16;;;19.57;71.70
34073;BME280;20346;52.702;16.886;2023-06-22T04:16:35;101297.25;;;19.67;71.65
34073;BME280;20346;52.702;16.886;2023-06-22T04:19:21;101298.65;;;19.75;71.61
34073;BME280;20346;52.702;16.886;2023-06-22T04:22:07;101302.02;;;19.82;71.56
34073;BME280;20346;52.702;16.886;2023-06-22T04:24:53;101304.13;;;19.94;71.66
34073;BME280;20346;52.702;16.886;2023-06-22T04:27:39;101304.99;;;20.10;71.60
34073;BME280;20346;52.702;16.886;2023-06-22T04:30:28;101296.63;;;20.28;71.54
34073;BME280;20346;52.702;16.886;2023-06-22T04:33:17;101297.89;;;20.39;71.35
34073;BME280;20346;52.702;16.886;2023-06-22T04:36:03;101305.98;;;20.42;71.37
34073;BME280;20346;52.702;16.886;2023-06-22T04:38:49;101306.33;;;20.46;71.45
34073;BME280;20346;52.702;16.886;2023-06-22T04:41:39;101304.89;;;20.51;71.46
34073;BME280;20346;52.702;16.886;2023-06-22T04:44:28;101309.23;;;20.59;71.44
34073;BME280;20346;52.702;16.886;2023-06-22T04:47:15;101313.02;;;20.65;71.34
34073;BME280;20346;52.702;16.886;2023-06-22T04:50:01;101311.27;;;20.68;71.36
34073;BME280;20346;52.702;16.886;2023-06-22T04:52:51;101311.30;;;20.78;71.21
34073;BME280;20346;52.702;16.886;2023-06-22T04:55:37;101311.75;;;20.87;71.29
34073;BME280;20346;52.702;16.886;2023-06-22T04:58:27;101319.31;;;21.08;71.30
34073;BME280;20346;52.702;16.886;2023-06-22T05:01:14;101319.28;;;21.34;71.29
34073;BME280;20346;52.702;16.886;2023-06-22T05:04:00;101314.37;;;21.72;71.08
34073;BME280;20346;52.702;16.886;2023-06-22T05:06:50;101316.46;;;22.16;70.88
34073;BME280;20346;52.702;16.886;2023-06-22T05:09:36;101315.33;;;22.59;70.59
34073;BME280;20346;52.702;16.886;2023-06-22T05:12:23;101310.50;;;23.02;70.30
34073;BME280;20346;52.702;16.886;2023-06-22T05:15:09;101310.15;;;23.44;70.09
34073;BME280;20346;52.702;16.886;2023-06-22T05:17:55;101309.09;;;23.85;69.98
34073;BME280;20346;52.702;16.886;2023-06-22T05:20:41;101304.94;;;24.24;69.71
34073;BME280;20346;52.702;16.886;2023-06-22T05:23:28;101313.27;;;24.62;69.38
34073;BME280;20346;52.702;16.886;2023-06-22T05:26:14;101304.31;;;24.95;69.00
34073;BME280;20346;52.702;16.886;2023-06-22T05:29:01;101307.96;;;25.27;68.87
34073;BME280;20346;52.702;16.886;2023-06-22T05:31:48;101302.90;;;25.60;68.55
34073;BME280;20346;52.702;16.886;2023-06-22T05:34:35;101297.90;;;25.95;68.50
34073;BME280;20346;52.702;16.886;2023-06-22T05:37:21;101295.23;;;26.27;68.17
34073;BME280;20346;52.702;16.886;2023-06-22T05:40:08;101297.97;;;26.60;67.92
34073;BME280;20346;52.702;16.886;2023-06-22T05:42:55;101295.80;;;26.90;67.41
34073;BME280;20346;52.702;16.886;2023-06-22T05:45:41;101300.96;;;27.23;67.51
34073;BME280;20346;52.702;16.886;2023-06-22T05:48:28;101304.21;;;27.52;67.17
34073;BME280;20346;52.702;16.886;2023-06-22T05:51:14;101304.97;;;27.70;66.89
34073;BME280;20346;52.702;16.886;2023-06-22T05:54:00;101316.44;;;27.84;66.32
34073;BME280;20346;52.702;16.886;2023-06-22T05:56:46;101323.80;;;28.10;65.81
34073;BME280;20346;52.702;16.886;2023-06-22T05:59:32;101324.19;;;28.44;65.53
34073;BME280;20346;52.702;16.886;2023-06-22T06:02:18;101316.42;;;28.78;65.24
34073;BME280;20346;52.702;16.886;2023-06-22T06:05:05;101307.64;;;28.94;64.67
34073;BME280;20346;52.702;16.886;2023-06-22T06:07:53;101307.62;;;28.94;64.63
34073;BME280;20346;52.702;16.886;2023-06-22T06:10:39;101318.42;;;29.14;64.29
34073;BME280;20346;52.702;16.886;2023-06-22T06:13:25;101315.45;;;29.32;63.67
34073;BME280;20346;52.702;16.886;2023-06-22T06:16:11;101312.97;;;29.43;63.21
34073;BME280;20346;52.702;16.886;2023-06-22T06:18:57;101324.02;;;29.63;62.72
34073;BME280;20346;52.702;16.886;2023-06-22T06:21:44;101330.09;;;29.71;62.42
34073;BME280;20346;52.702;16.886;2023-06-22T06:24:30;101332.70;;;29.95;61.95
34073;BME280;20346;52.702;16.886;2023-06-22T06:27:16;101326.98;;;30.25;61.48
34073;BME280;20346;52.702;16.886;2023-06-22T06:30:06;101331.46;;;30.65;61.19
34073;BME280;20346;52.702;16.886;2023-06-22T06:32:53;101336.36;;;31.10;60.20
34073;BME280;20346;52.702;16.886;2023-06-22T06:35:40;101329.46;;;31.55;59.54
34073;BME280;20346;52.702;16.886;2023-06-22T06:38:27;101324.61;;;32.04;59.16
34073;BME280;20346;52.702;16.886;2023-06-22T06:41:21;101330.88;;;32.61;58.50
34073;BME280;20346;52.702;16.886;2023-06-22T06:44:10;101328.64;;;33.20;58.10
34073;BME280;20346;52.702;16.886;2023-06-22T06:47:10;101333.14;;;33.86;57.27
34073;BME280;20346;52.702;16.886;2023-06-22T06:49:58;101335.51;;;34.38;56.64
34073;BME280;20346;52.702;16.886;2023-06-22T06:53:04;101334.27;;;34.88;56.04
34073;BME280;20346;52.702;16.886;2023-06-22T06:56:00;101332.58;;;35.32;55.75
34073;BME280;20346;52.702;16.886;2023-06-22T06:59:06;101338.48;;;35.59;55.30
34073;BME280;20346;52.702;16.886;2023-06-22T07:01:54;101339.15;;;35.84;54.34
34073;BME280;20346;52.702;16.886;2023-06-22T07:04:41;101336.08;;;35.77;54.03
34073;BME280;20346;52.702;16.886;2023-06-22T07:07:28;101338.27;;;35.93;53.66
34073;BME280;20346;52.702;16.886;2023-06-22T07:10:15;101344.52;;;36.17;52.21
34073;BME280;20346;52.702;16.886;2023-06-22T07:13:03;101343.77;;;36.58;51.31
34073;BME280;20346;52.702;16.886;2023-06-22T07:27:07;101340.36;;;38.54;47.54
34073;BME280;20346;52.702;16.886;2023-06-22T07:30:13;101335.86;;;37.66;47.61
34073;BME280;20346;52.702;16.886;2023-06-22T07:33:01;101337.11;;;37.38;47.64
34073;BME280;20346;52.702;16.886;2023-06-22T07:35:50;101338.36;;;37.80;46.57
34073;BME280;20346;52.702;16.886;2023-06-22T07:38:40;101335.80;;;37.37;45.92
34073;BME280;20346;52.702;16.886;2023-06-22T07:41:26;101334.83;;;36.99;45.70
34073;BME280;20346;52.702;16.886;2023-06-22T07:44:13;101333.91;;;36.63;45.11
34073;BME280;20346;52.702;16.886;2023-06-22T07:46:59;101325.66;;;37.57;44.59
34073;BME280;20346;52.702;16.886;2023-06-22T07:49:46;101324.30;;;39.30;43.06
34073;BME280;20346;52.702;16.886;2023-06-22T07:52:32;101328.15;;;40.57;42.10
34073;BME280;20346;52.702;16.886;2023-06-22T07:55:18;101328.03;;;41.69;41.18
34073;BME280;20346;52.702;16.886;2023-06-22T07:58:04;101319.55;;;42.67;40.41
34073;BME280;20346;52.702;16.886;2023-06-22T08:00:50;101312.81;;;43.69;40.16
34073;BME280;20346;52.702;16.886;2023-06-22T08:03:39;101317.78;;;44.62;39.44
34073;BME280;20346;52.702;16.886;2023-06-22T08:06:25;101317.02;;;45.49;38.94
34073;BME280;20346;52.702;16.886;2023-06-22T08:09:11;101308.44;;;46.31;38.02
34073;BME280;20346;52.702;16.886;2023-06-22T08:11:58;101306.34;;;46.67;37.07
34073;BME280;20346;52.702;16.886;2023-06-22T08:14:44;101308.27;;;46.88;36.56
34073;BME280;20346;52.702;16.886;2023-06-22T08:17:31;101317.73;;;47.31;35.87
34073;BME280;20346;52.702;16.886;2023-06-22T08:20:17;101323.86;;;47.70;34.91
34073;BME280;20346;52.702;16.886;2023-06-22T08:23:03;101322.16;;;47.95;33.90
34073;BME280;20346;52.702;16.886;2023-06-22T08:25:51;101320.27;;;47.98;32.73
34073;BME280;20346;52.702;16.886;2023-06-22T08:28:38;101320.73;;;48.23;31.85
34073;BME280;20346;52.702;16.886;2023-06-22T08:31:24;101322.02;;;48.74;31.17
34073;BME280;20346;52.702;16.886;2023-06-22T08:34:10;101316.08;;;49.17;30.25
34073;BME280;20346;52.702;16.886;2023-06-22T08:36:56;101311.23;;;49.52;29.41
34073;BME280;20346;52.702;16.886;2023-06-22T08:39:42;101313.86;;;49.58;28.74
34073;BME280;20346;52.702;16.886;2023-06-22T08:42:29;101310.11;;;49.78;27.92
34073;BME280;20346;52.702;16.886;2023-06-22T08:45:15;101308.80;;;49.94;27.07
34073;BME280;20346;52.702;16.886;2023-06-22T08:48:01;101307.48;;;49.93;26.40
34073;BME280;20346;52.702;16.886;2023-06-22T08:50:48;101311.59;;;49.88;25.67
34073;BME280;20346;52.702;16.886;2023-06-22T08:53:34;101309.91;;;49.95;25.32
34073;BME280;20346;52.702;16.886;2023-06-22T08:56:21;101307.95;;;50.02;24.71
34073;BME280;20346;52.702;16.886;2023-06-22T08:59:07;101311.98;;;49.94;23.98
34073;BME280;20346;52.702;16.886;2023-06-22T09:01:53;101316.52;;;48.92;23.17
34073;BME280;20346;52.702;16.886;2023-06-22T09:04:39;101311.21;;;45.96;22.48
34073;BME280;20346;52.702;16.886;2023-06-22T09:07:26;101297.02;;;42.77;22.42
34073;BME280;20346;52.702;16.886;2023-06-22T09:10:12;101286.27;;;40.57;22.30
34073;BME280;20346;52.702;16.886;2023-06-22T09:12:58;101275.75;;;38.81;22.68
34073;BME280;20346;52.702;16.886;2023-06-22T09:15:44;101271.65;;;37.61;22.92
34073;BME280;20346;52.702;16.886;2023-06-22T09:18:30;101266.08;;;36.45;22.86
34073;BME280;20346;52.702;16.886;2023-06-22T09:21:16;101257.31;;;35.49;22.92
34073;BME280;20346;52.702;16.886;2023-06-22T09:24:02;101253.11;;;34.60;22.86
34073;BME280;20346;52.702;16.886;2023-06-22T09:26:48;101253.91;;;33.85;22.97
34073;BME280;20346;52.702;16.886;2023-06-22T09:29:35;101249.38;;;33.17;23.39
34073;BME280;20346;52.702;16.886;2023-06-22T09:32:21;101247.20;;;32.59;23.64
34073;BME280;20346;52.702;16.886;2023-06-22T09:35:07;101243.54;;;32.00;23.98
34073;BME280;20346;52.702;16.886;2023-06-22T09:37:55;101248.36;;;31.61;24.41
34073;BME280;20346;52.702;16.886;2023-06-22T09:40:41;101245.95;;;31.32;24.60
34073;BME280;20346;52.702;16.886;2023-06-22T09:43:28;101243.05;;;30.88;24.82
34073;BME280;20346;52.702;16.886;2023-06-22T09:46:17;101234.56;;;30.51;25.21
34073;BME280;20346;52.702;16.886;2023-06-22T09:49:04;101237.55;;;30.19;25.20
34073;BME280;20346;52.702;16.886;2023-06-22T09:51:51;101240.60;;;29.83;25.64
34073;BME280;20346;52.702;16.886;2023-06-22T09:54:47;101239.77;;;29.60;25.98
34073;BME280;20346;52.702;16.886;2023-06-22T09:57:56;101240.20;;;29.38;26.37
34073;BME280;20346;52.702;16.886;2023-06-22T10:00:52;101240.12;;;29.20;26.69
34073;BME280;20346;52.702;16.886;2023-06-22T10:03:48;101239.73;;;29.08;26.95
34073;BME280;20346;52.702;16.886;2023-06-22T10:07:03;101244.21;;;28.91;26.95
34073;BME280;20346;52.702;16.886;2023-06-22T10:13:14;101239.98;;;28.58;27.75
34073;BME280;20346;52.702;16.886;2023-06-22T10:16:35;101235.68;;;28.46;28.01
34073;BME280;20346;52.702;16.886;2023-06-22T10:19:25;101237.75;;;28.29;28.11
34073;BME280;20346;52.702;16.886;2023-06-22T10:22:35;101237.36;;;28.18;28.42
34073;BME280;20346;52.702;16.886;2023-06-22T10:25:31;101228.15;;;28.14;28.74
34073;BME280;20346;52.702;16.886;2023-06-22T10:28:22;101223.44;;;28.11;29.20
34073;BME280;20346;52.702;16.886;2023-06-22T10:31:08;101220.90;;;28.13;29.39
34073;BME280;20346;52.702;16.886;2023-06-22T10:33:55;101223.99;;;28.17;29.59
34073;BME280;20346;52.702;16.886;2023-06-22T10:36:41;101223.59;;;28.15;29.47
34073;BME280;20346;52.702;16.886;2023-06-22T10:39:27;101215.05;;;28.07;29.75
34073;BME280;20346;52.702;16.886;2023-06-22T10:42:14;101214.17;;;28.03;29.84
34073;BME280;20346;52.702;16.886;2023-06-22T10:45:03;101220.02;;;27.98;30.07
34073;BME280;20346;52.702;16.886;2023-06-22T10:47:51;101215.34;;;27.94;30.23
34073;BME280;20346;52.702;16.886;2023-06-22T10:50:38;101217.98;;;27.92;30.55
34073;BME280;20346;52.702;16.886;2023-06-22T10:53:24;101213.53;;;27.93;30.73
34073;BME280;20346;52.702;16.886;2023-06-22T10:56:11;101215.70;;;27.92;30.55
34073;BME280;20346;52.702;16.886;2023-06-22T10:58:57;101213.96;;;27.81;30.85
34073;BME280;20346;52.702;16.886;2023-06-22T11:01:44;101208.42;;;27.75;31.06
34073;BME280;20346;52.702;16.886;2023-06-22T11:04:30;101211.02;;;27.76;31.22
34073;BME280;20346;52.702;16.886;2023-06-22T11:07:16;101209.20;;;27.80;31.44
34073;BME280;20346;52.702;16.886;2023-06-22T11:10:03;101211.86;;;27.85;31.44
34073;BME280;20346;52.702;16.886;2023-06-22T11:12:50;101207.52;;;27.86;31.69
34073;BME280;20346;52.702;16.886;2023-06-22T11:15:36;101208.29;;;27.87;31.70
34073;BME280;20346;52.702;16.886;2023-06-22T11:18:22;101206.02;;;27.85;31.74
34073;BME280;20346;52.702;16.886;2023-06-22T11:21:09;101201.64;;;27.82;31.81
34073;BME280;20346;52.702;16.886;2023-06-22T11:23:55;101203.84;;;27.77;32.00
34073;BME280;20346;52.702;16.886;2023-06-22T11:26:42;101197.85;;;27.74;32.05
34073;BME280;20346;52.702;16.886;2023-06-22T11:29:30;101197.51;;;27.76;32.19
34073;BME280;20346;52.702;16.886;2023-06-22T11:32:23;101184.13;;;27.77;32.02
34073;BME280;20346;52.702;16.886;2023-06-22T11:35:14;101180.23;;;27.73;32.16
34073;BME280;20346;52.702;16.886;2023-06-22T11:38:03;101180.26;;;27.75;32.33
34073;BME280;20346;52.702;16.886;2023-06-22T11:40:50;101179.67;;;27.82;32.49
34073;BME280;20346;52.702;16.886;2023-06-22T11:43:37;101183.34;;;27.89;32.55
34073;BME280;20346;52.702;16.886;2023-06-22T11:46:23;101178.73;;;27.94;32.55
34073;BME280;20346;52.702;16.886;2023-06-22T11:49:09;101179.16;;;27.95;32.55
34073;BME280;20346;52.702;16.886;2023-06-22T11:51:55;101173.52;;;27.99;32.70
34073;BME280;20346;52.702;16.886;2023-06-22T11:54:41;101174.17;;;28.02;32.53
34073;BME280;20346;52.702;16.886;2023-06-22T11:57:27;101172.23;;;28.04;32.62
34073;BME280;20346;52.702;16.886;2023-06-22T12:00:14;101171.52;;;28.08;32.69
34073;BME280;20346;52.702;16.886;2023-06-22T12:03:03;101171.03;;;28.14;32.78
34073;BME280;20346;52.702;16.886;2023-06-22T12:05:50;101169.16;;;28.19;32.76
34073;BME280;20346;52.702;16.886;2023-06-22T12:08:39;101167.27;;;28.21;32.78
34073;BME280;20346;52.702;16.886;2023-06-22T12:11:26;101161.48;;;28.23;32.91
34073;BME280;20346;52.702;16.886;2023-06-22T12:14:12;101161.48;;;28.23;32.85
34073;BME280;20346;52.702;16.886;2023-06-22T12:16:58;101158.02;;;28.24;32.95
34073;BME280;20346;52.702;16.886;2023-06-22T12:19:44;101149.84;;;28.22;32.81
34073;BME280;20346;52.702;16.886;2023-06-22T12:22:31;101144.81;;;28.23;33.11
34073;BME280;20346;52.702;16.886;2023-06-22T12:25:17;101157.44;;;28.29;33.08
34073;BME280;20346;52.702;16.886;2023-06-22T12:28:03;101156.20;;;28.31;33.00
34073;BME280;20346;52.702;16.886;2023-06-22T12:30:50;101155.02;;;28.26;33.03
34073;BME280;20346;52.702;16.886;2023-06-22T12:33:36;101145.05;;;28.24;33.15
34073;BME280;20346;52.702;16.886;2023-06-22T12:36:22;101140.17;;;28.27;33.25
34073;BME280;20346;52.702;16.886;2023-06-22T12:39:10;101140.59;;;28.29;33.16
34073;BME280;20346;52.702;16.886;2023-06-22T12:41:56;101141.58;;;28.25;33.06
34073;BME280;20346;52.702;16.886;2023-06-22T12:44:42;101143.67;;;28.26;33.13
34073;BME280;20346;52.702;16.886;2023-06-22T12:47:29;101139.72;;;28.26;33.27
34073;BME280;20346;52.702;16.886;2023-06-22T12:50:15;101137.98;;;28.22;33.08
34073;BME280;20346;52.702;16.886;2023-06-22T12:53:17;101127.73;;;28.12;33.17
34073;BME280;20346;52.702;16.886;2023-06-22T12:56:03;101127.22;;;28.06;33.28
34073;BME280;20346;52.702;16.886;2023-06-22T12:58:49;101124.05;;;27.99;33.32
34073;BME280;20346;52.702;16.886;2023-06-22T13:01:36;101124.22;;;27.99;33.34
34073;BME280;20346;52.702;16.886;2023-06-22T13:04:23;101124.55;;;28.02;33.36
34073;BME280;20346;52.702;16.886;2023-06-22T13:07:09;101127.42;;;28.06;33.48
34073;BME280;20346;52.702;16.886;2023-06-22T13:09:56;101121.80;;;28.11;33.58
34073;BME280;20346;52.702;16.886;2023-06-22T13:12:42;101121.89;;;28.12;33.41
34073;BME280;20346;52.702;16.886;2023-06-22T13:15:28;101117.02;;;28.13;33.49
34073;BME280;20346;52.702;16.886;2023-06-22T13:18:19;101116.06;;;28.18;33.44
34073;BME280;20346;52.702;16.886;2023-06-22T13:21:06;101104.96;;;28.20;33.32
34073;BME280;20346;52.702;16.886;2023-06-22T13:23:52;101098.13;;;28.17;33.34
34073;BME280;20346;52.702;16.886;2023-06-22T13:26:38;101101.99;;;28.17;33.38
34073;BME280;20346;52.702;16.886;2023-06-22T13:29:26;101094.27;;;28.16;33.29
34073;BME280;20346;52.702;16.886;2023-06-22T13:32:12;101085.09;;;28.11;33.22
34073;BME280;20346;52.702;16.886;2023-06-22T13:34:58;101081.88;;;28.06;33.01
34073;BME280;20346;52.702;16.886;2023-06-22T13:37:44;101081.58;;;28.03;33.19
34073;BME280;20346;52.702;16.886;2023-06-22T13:40:30;101076.07;;;28.03;33.32
34073;BME280;20346;52.702;16.886;2023-06-22T13:43:17;101073.70;;;28.04;33.13
34073;BME280;20346;52.702;16.886;2023-06-22T13:46:03;101077.23;;;28.08;33.30
34073;BME280;20346;52.702;16.886;2023-06-22T13:48:49;101072.27;;;28.14;33.28
34073;BME280;20346;52.702;16.886;2023-06-22T13:51:36;101079.17;;;28.21;33.30
34073;BME280;20346;52.702;16.886;2023-06-22T13:54:22;101082.58;;;28.29;33.32
34073;BME280;20346;52.702;16.886;2023-06-22T13:57:08;101087.15;;;28.34;33.16
34073;BME280;20346;52.702;16.886;2023-06-22T13:59:54;101084.07;;;28.37;33.00
34073;BME280;20346;52.702;16.886;2023-06-22T14:02:41;101089.64;;;28.40;33.08
34073;BME280;20346;52.702;16.886;2023-06-22T14:05:27;101090.27;;;28.45;33.07
34073;BME280;20346;52.702;16.886;2023-06-22T14:08:13;101090.73;;;28.51;32.93
34073;BME280;20346;52.702;16.886;2023-06-22T14:11:00;101090.22;;;28.57;33.05
34073;BME280;20346;52.702;16.886;2023-06-22T14:13:47;101091.30;;;28.62;32.91
34073;BME280;20346;52.702;16.886;2023-06-22T14:16:33;101082.83;;;28.68;32.92
34073;BME280;20346;52.702;16.886;2023-06-22T14:19:19;101081.43;;;28.74;32.93
34073;BME280;20346;52.702;16.886;2023-06-22T14:22:05;101081.10;;;28.80;32.68
34073;BME280;20346;52.702;16.886;2023-06-22T14:24:51;101085.88;;;28.84;32.69
34073;BME280;20346;52.702;16.886;2023-06-22T14:27:37;101079.10;;;28.87;32.55
34073;BME280;20346;52.702;16.886;2023-06-22T14:30:23;101075.27;;;28.92;32.70
34073;BME280;20346;52.702;16.886;2023-06-22T14:33:10;101078.73;;;29.01;32.47
34073;BME280;20346;52.702;16.886;2023-06-22T14:35:56;101075.41;;;29.09;32.45
34073;BME280;20346;52.702;16.886;2023-06-22T14:38:43;101076.06;;;29.16;32.55
34073;BME280;20346;52.702;16.886;2023-06-22T14:41:30;101074.02;;;29.19;32.36